LIBR/BDS METAR and TAF weather

Enter ICAO airport designator
Station Type Date Time Source
LIBR METAR 2021/09/23 17:20 UTC NOAA

LIBR 231720Z 35013KT CAVOK 20/07 Q1019


Station Type Date Time Source
LIBR Decoded METAR 2021/09/23 17:20 UTC NOAA

Brindisi, Italy (LIBR) 40-39N 017-57E 10M
Sep 23, 2021 - 01:20 PM EDT / 2021.09.23 1720 UTC
Wind: from the N (350 degrees) at 15 MPH (13 KT):0
Visibility: greater than 7 mile(s):0
Temperature: 68 F (20 C)
Dew Point: 44 F (7 C)
Relative Humidity: 42%
Pressure (altimeter): 30.09 in. Hg (1019 hPa)
ob: LIBR 231720Z 35013KT CAVOK 20/07 Q1019
cycle: 17

Station Type Date Time Source
LIBR TAF 2021/09/23 18:25 UTC NOAA

TAF LIBR 231700Z 2318/2418 36013KT CAVOK
BECMG 2320/2322 VRB05KT
BECMG 2408/2410 05010KT

Example: see airport list